Time;durP1;ratioP1;P1;durP2;ratioP2;P2;SDS_P1;SDS_P2;PMS_P1;PMS_P2;Temp;Humidity;BMP_temperature;BMP_pressure;BME280_temperature;BME280_humidity;BME280_pressure;Samples;Min_cycle;Max_cycle;Signal;HPM_P1;HPM_P2
2024/04/23 00:03:05;;;;;;;30.30;18.40;;;;;;;-0.05;100.00;100860.13;179693;1262;46170;-82
2024/04/23 00:07:08;;;;;;;38.90;21.30;;;;;;;-0.07;100.00;100861.23;179449;1261;58866;-85
2024/04/23 00:11:11;;;;;;;39.70;21.00;;;;;;;-0.10;100.00;100862.70;178805;1262;44764;-85
2024/04/23 00:15:13;;;;;;;40.70;26.80;;;;;;;-0.10;99.93;100854.33;177756;1263;46066;-87
2024/04/23 00:19:16;;;;;;;33.70;22.30;;;;;;;-0.12;100.00;100849.18;178594;1262;44006;-83
2024/04/23 00:23:19;;;;;;;40.20;24.40;;;;;;;-0.19;99.95;100849.20;178162;1264;46000;-85
2024/04/23 00:27:22;;;;;;;45.20;24.00;;;;;;;-0.25;100.00;100843.94;178211;1261;59442;-82
2024/04/23 00:31:25;;;;;;;54.30;26.30;;;;;;;-0.25;100.00;100847.80;177748;1262;46201;-85
2024/04/23 00:35:28;;;;;;;43.10;24.90;;;;;;;-0.25;99.86;100853.02;178241;1262;46093;-83
2024/04/23 00:39:31;;;;;;;36.20;22.50;;;;;;;-0.24;99.80;100866.23;179361;1261;45912;-84
2024/04/23 00:43:34;;;;;;;48.80;27.40;;;;;;;-0.24;99.23;100869.55;178185;1261;46295;-84
2024/04/23 00:47:36;;;;;;;40.00;24.10;;;;;;;-0.25;98.84;100869.41;178629;1262;58168;-79
2024/04/23 00:51:40;;;;;;;37.40;19.50;;;;;;;-0.29;98.39;100871.77;178673;1262;46160;-86
2024/04/23 00:55:44;;;;;;;35.40;21.30;;;;;;;-0.31;98.43;100870.23;178384;1261;46134;-85
2024/04/23 00:59:47;;;;;;;44.00;18.40;;;;;;;-0.45;99.85;100870.61;178275;1262;46058;-86
2024/04/23 01:03:50;;;;;;;33.60;19.70;;;;;;;-0.60;99.66;100864.73;179261;1262;43983;-86
2024/04/23 01:07:53;;;;;;;37.00;20.10;;;;;;;-0.63;99.70;100859.60;178113;1262;57774;-85
2024/04/23 01:11:56;;;;;;;33.50;20.80;;;;;;;-0.68;100.00;100856.24;179179;1262;44297;-84
2024/04/23 01:15:59;;;;;;;41.60;23.20;;;;;;;-0.68;100.00;100853.80;179385;1262;46009;-86
2024/04/23 01:20:06;;;;;;;40.00;22.30;;;;;;;-0.67;100.00;100851.35;178790;1262;46051;-82
2024/04/23 01:24:15;;;;;;;55.00;23.00;;;;;;;-0.76;99.92;100853.48;177870;1262;46155;-84
2024/04/23 01:28:18;;;;;;;50.80;26.10;;;;;;;-0.90;99.64;100844.59;180365;1264;60015;-78
2024/04/23 01:32:25;;;;;;;40.90;21.60;;;;;;;-0.94;100.00;100849.59;180149;1262;45930;-84
2024/04/23 01:36:29;;;;;;;32.90;19.70;;;;;;;-0.98;100.00;100851.25;178654;1266;45976;-84
2024/04/23 01:40:32;;;;;;;31.20;18.90;;;;;;;-0.96;100.00;100846.17;177851;1262;46582;-83
2024/04/23 01:44:36;;;;;;;35.80;18.80;;;;;;;-1.06;100.00;100845.50;177385;1262;45347;-84
2024/04/23 01:48:39;;;;;;;29.20;16.80;;;;;;;-1.06;100.00;100845.16;178652;1262;57182;-83
2024/04/23 01:52:42;;;;;;;33.20;18.80;;;;;;;-1.04;100.00;100846.32;178131;1262;46249;-83
2024/04/23 01:56:45;;;;;;;31.90;18.70;;;;;;;-1.01;100.00;100848.17;177953;1262;46165;-86
2024/04/23 02:00:52;;;;;;;41.70;21.40;;;;;;;-1.00;100.00;100848.67;178551;1262;46018;-81
2024/04/23 02:04:55;;;;;;;44.80;22.40;;;;;;;-0.96;100.00;100847.91;179174;1262;46647;-86
2024/04/23 02:08:59;;;;;;;36.40;20.10;;;;;;;-0.95;100.00;100843.69;178602;1262;59454;-83
2024/04/23 02:13:05;;;;;;;;;;;;;;;-0.93;100.00;100847.11;178544;1262;46191;-84
2024/04/23 02:17:08;;;;;;;56.90;24.90;;;;;;;-0.98;100.00;100846.02;177605;1262;43791;-84
2024/04/23 02:21:11;;;;;;;59.40;30.30;;;;;;;-1.15;100.00;100843.98;178195;1262;46094;-86
2024/04/23 02:25:14;;;;;;;57.60;31.30;;;;;;;-1.32;100.00;100843.52;177901;1262;44123;-87
2024/04/23 02:29:17;;;;;;;75.10;35.40;;;;;;;-1.46;100.00;100841.05;177658;1262;58267;-83
2024/04/23 02:33:19;;;;;;;68.10;31.70;;;;;;;-1.52;100.00;100845.20;179291;1262;46077;-82
2024/04/23 02:37:22;;;;;;;52.50;24.60;;;;;;;-1.56;100.00;100840.23;179203;1262;46046;-86
2024/04/23 02:41:25;;;;;;;51.00;25.50;;;;;;;-1.58;100.00;100830.19;179616;1262;46554;-84
2024/04/23 02:45:28;;;;;;;49.00;22.10;;;;;;;-1.53;100.00;100830.62;177775;1262;46982;-82
2024/04/23 02:49:33;;;;;;;38.60;23.50;;;;;;;-1.52;100.00;100828.31;179806;1262;57917;-86
2024/04/23 02:53:36;;;;;;;34.20;18.40;;;;;;;-1.59;100.00;100830.91;178481;1262;46077;-84
2024/04/23 02:57:41;;;;;;;37.20;19.80;;;;;;;-1.65;100.00;100834.34;179180;1262;44706;-85
2024/04/23 03:01:44;;;;;;;32.00;20.10;;;;;;;-1.65;100.00;100832.08;178203;1263;46156;-84
2024/04/23 03:05:47;;;;;;;42.00;21.80;;;;;;;-1.60;100.00;100830.41;178540;1262;45867;-85
2024/04/23 03:09:50;;;;;;;44.60;20.50;;;;;;;-1.56;100.00;100822.83;177950;1265;57926;-87
2024/04/23 03:13:53;;;;;;;37.10;22.40;;;;;;;-1.52;100.00;100818.77;177526;1262;46240;-84
2024/04/23 03:17:55;;;;;;;42.70;26.00;;;;;;;-1.59;100.00;100816.27;178957;1262;44491;-84
2024/04/23 03:21:58;;;;;;;43.30;24.10;;;;;;;-1.59;100.00;100811.94;179386;1262;44175;-82
2024/04/23 03:26:01;;;;;;;38.00;22.20;;;;;;;-1.54;100.00;100806.64;178739;1262;46139;-85
2024/04/23 03:30:04;;;;;;;34.80;20.00;;;;;;;-1.51;100.00;100801.70;178043;1262;58317;-84
2024/04/23 03:34:07;;;;;;;36.50;21.80;;;;;;;-1.58;100.00;100801.15;177549;1262;46154;-85
2024/04/23 03:38:10;;;;;;;41.70;20.20;;;;;;;-1.72;100.00;100796.59;178021;1262;46152;-84
2024/04/23 03:42:13;;;;;;;34.30;20.00;;;;;;;-1.79;100.00;100789.96;177659;1263;46144;-84
2024/04/23 03:46:16;;;;;;;41.20;20.90;;;;;;;-1.74;100.00;100787.25;178345;1262;46218;-82
2024/04/23 03:50:18;;;;;;;33.80;21.50;;;;;;;-1.67;100.00;100782.20;178471;1262;59276;-83
2024/04/23 03:54:21;;;;;;;26.50;18.20;;;;;;;-1.61;100.00;100786.60;179859;1262;46141;-86
2024/04/23 03:58:24;;;;;;;37.30;19.00;;;;;;;-1.54;100.00;100787.15;179247;1262;43884;-82
2024/04/23 04:06:48;;;;;;;38.70;18.50;;;;;;;-1.48;100.00;100789.96;178930;1262;46002;-84
2024/04/23 04:10:51;;;;;;;29.70;20.00;;;;;;;-1.11;100.00;100792.36;177903;1262;58274;-84
2024/04/23 04:14:54;;;;;;;33.00;18.50;;;;;;;-0.19;100.00;100794.10;179587;1262;45163;-83
2024/04/23 04:18:56;;;;;;;32.10;19.20;;;;;;;0.75;100.00;100788.63;178971;1262;44137;-85
2024/04/23 04:22:59;;;;;;;30.10;19.20;;;;;;;1.32;99.97;100787.42;178689;1262;46080;-87
2024/04/23 04:27:02;;;;;;;33.00;17.00;;;;;;;1.42;98.73;100794.21;178312;1266;46226;-87
2024/04/23 04:31:07;;;;;;;24.60;17.20;;;;;;;2.19;99.55;100797.02;178091;1262;57979;-86
2024/04/23 04:35:09;;;;;;;26.90;15.50;;;;;;;3.18;100.00;100799.31;177742;1262;46584;-87
2024/04/23 04:39:12;;;;;;;30.60;18.20;;;;;;;4.24;100.00;100799.02;179486;1262;45999;-85
2024/04/23 04:43:15;;;;;;;36.50;22.60;;;;;;;5.15;94.36;100790.91;178050;1262;46062;-84
2024/04/23 04:47:18;;;;;;;32.10;20.10;;;;;;;5.70;86.11;100784.58;178614;1262;44066;-83
2024/04/23 04:51:21;;;;;;;29.20;17.30;;;;;;;6.27;85.45;100787.81;179899;1262;57907;-79
2024/04/23 04:55:24;;;;;;;35.90;21.80;;;;;;;6.85;79.09;100787.58;180265;1262;45921;-82
2024/04/23 04:59:28;;;;;;;27.20;17.90;;;;;;;7.19;74.70;100786.30;178153;1262;45906;-84
2024/04/23 05:03:31;;;;;;;25.60;17.70;;;;;;;7.30;71.80;100789.17;179959;1262;45381;-84
2024/04/23 05:07:34;;;;;;;29.30;17.70;;;;;;;7.59;70.26;100788.91;178252;1266;46115;-79
2024/04/23 05:11:37;;;;;;;44.10;25.80;;;;;;;8.21;72.81;100786.62;178366;1262;57951;-86
2024/04/23 05:15:40;;;;;;;29.40;19.80;;;;;;;9.16;68.64;100778.14;177864;1262;46198;-82
2024/04/23 05:19:44;;;;;;;27.60;18.40;;;;;;;9.91;65.03;100780.44;178201;1263;44723;-84
2024/04/23 05:23:47;;;;;;;26.30;17.70;;;;;;;10.31;61.51;100775.82;177979;1262;46071;-86
2024/04/23 05:27:49;;;;;;;23.90;15.70;;;;;;;10.56;61.47;100771.54;177495;1266;46239;-86
2024/04/23 05:36:14;;;;;;;31.40;18.80;;;;;;;11.04;58.94;100772.61;179229;1262;45892;-85
2024/04/23 05:40:17;;;;;;;28.40;17.30;;;;;;;11.31;57.21;100772.38;178907;1262;44380;-80
2024/04/23 05:44:21;;;;;;;21.20;14.60;;;;;;;11.33;57.22;100772.73;178796;1262;46065;-83
2024/04/23 05:49:02;;;;;;;22.00;16.00;;;;;;;10.83;56.52;100773.67;179546;1263;43962;-86
2024/04/23 05:53:43;;;;;;;26.00;17.30;;;;;;;10.50;59.76;100772.15;180173;1262;60208;-84
2024/04/23 05:57:47;;;;;;;22.50;15.20;;;;;;;11.02;58.08;100775.27;178317;1262;46104;-87
2024/04/23 06:01:50;;;;;;;35.80;16.30;;;;;;;10.94;57.70;100777.22;177497;1263;46002;-84
2024/04/23 06:05:53;;;;;;;27.40;16.50;;;;;;;11.11;57.96;100774.94;178024;1262;46048;-86
2024/04/23 06:09:56;;;;;;;24.90;16.10;;;;;;;11.37;58.27;100774.70;179370;1262;44763;-83
2024/04/23 06:14:08;;;;;;;36.80;20.90;;;;;;;11.49;56.85;100772.91;177770;1262;58958;-83
2024/04/23 06:18:12;;;;;;;24.60;17.30;;;;;;;11.54;55.83;100772.52;177916;1262;45973;-86
2024/04/23 06:22:15;;;;;;;35.10;18.60;;;;;;;11.25;56.77;100770.48;177718;1262;46030;-86
2024/04/23 06:26:18;;;;;;;19.00;12.80;;;;;;;11.05;57.53;100771.11;177819;1267;46094;-85
2024/04/23 06:30:21;;;;;;;18.30;12.10;;;;;;;10.70;56.57;100773.02;177914;1262;46127;-86
2024/04/23 06:34:24;;;;;;;17.30;12.50;;;;;;;10.12;57.40;100772.90;178354;1262;58249;-83
2024/04/23 06:38:27;;;;;;;23.10;14.80;;;;;;;9.28;59.58;100768.66;178222;1263;46232;-85
2024/04/23 06:42:30;;;;;;;17.70;12.70;;;;;;;8.41;62.66;100773.71;178909;1266;46166;-84
2024/04/23 06:46:33;;;;;;;23.20;13.80;;;;;;;7.91;63.90;100776.87;177636;1262;46014;-86
2024/04/23 06:50:36;;;;;;;22.60;12.40;;;;;;;7.85;64.61;100773.34;179666;1262;43808;-84
2024/04/23 06:54:39;;;;;;;21.10;13.00;;;;;;;7.68;68.19;100768.02;178645;1263;57390;-86
2024/04/23 06:58:42;;;;;;;21.20;13.40;;;;;;;7.64;69.96;100760.83;179043;1262;44221;-85
2024/04/23 07:02:45;;;;;;;20.20;13.90;;;;;;;7.81;69.95;100760.70;178065;1263;46401;-85
2024/04/23 07:06:48;;;;;;;27.60;14.80;;;;;;;7.87;68.89;100762.27;179120;1262;44753;-81
2024/04/23 07:10:57;;;;;;;16.70;11.10;;;;;;;7.90;70.08;100763.11;178996;1265;46005;-83
2024/04/23 07:15:00;;;;;;;14.30;11.30;;;;;;;7.84;69.34;100759.29;178267;1266;57949;-85
2024/04/23 07:19:04;;;;;;;12.20;10.40;;;;;;;7.87;68.58;100752.55;180076;1263;46054;-85
2024/04/23 07:23:07;;;;;;;20.40;13.70;;;;;;;7.86;68.44;100752.81;178544;1262;46036;-82
2024/04/23 07:27:11;;;;;;;15.40;10.50;;;;;;;7.98;69.21;100747.11;177604;1264;46035;-87
2024/04/23 07:31:14;;;;;;;14.40;8.90;;;;;;;8.13;68.56;100734.87;180040;1262;45903;-85
2024/04/23 07:35:16;;;;;;;13.20;11.40;;;;;;;8.21;67.50;100732.75;178418;1264;58425;-83
2024/04/23 07:39:19;;;;;;;14.60;9.30;;;;;;;8.04;69.74;100740.40;178805;1263;44379;-86
2024/04/23 07:43:22;;;;;;;17.50;9.50;;;;;;;7.99;67.86;100736.29;178439;1262;46034;-85
2024/04/23 07:47:27;;;;;;;15.00;9.10;;;;;;;8.31;69.71;100727.35;178319;1262;45969;-83
2024/04/23 07:51:32;;;;;;;14.40;7.80;;;;;;;8.73;65.51;100719.64;178151;1263;46030;-83
2024/04/23 07:55:35;;;;;;;9.00;5.80;;;;;;;9.03;62.82;100715.37;179524;1262;59179;-86
2024/04/23 07:59:38;;;;;;;14.00;7.60;;;;;;;9.06;60.23;100714.08;178854;1262;46089;-83
2024/04/23 08:03:41;;;;;;;9.00;6.50;;;;;;;9.17;58.84;100711.74;177984;1262;46133;-85
2024/04/23 08:07:43;;;;;;;8.00;6.70;;;;;;;9.22;57.03;100707.15;179009;1262;44956;-86
2024/04/23 08:11:46;;;;;;;7.70;5.50;;;;;;;9.47;58.45;100702.23;178651;1263;44221;-83
2024/04/23 08:15:49;;;;;;;12.30;6.80;;;;;;;9.67;57.96;100702.27;177639;1263;57968;-83
2024/04/23 08:19:52;;;;;;;8.60;5.00;;;;;;;9.65;55.72;100696.90;178200;1266;46395;-83
2024/04/23 08:23:55;;;;;;;11.70;4.90;;;;;;;9.70;53.87;100690.73;177871;1263;46043;-85
2024/04/23 08:27:58;;;;;;;8.80;6.60;;;;;;;9.75;54.24;100680.60;178817;1263;199351;-81
2024/04/23 08:32:01;;;;;;;6.00;4.20;;;;;;;9.76;52.89;100675.91;178444;1262;46157;-84
2024/04/23 08:36:05;;;;;;;6.30;4.70;;;;;;;9.76;55.16;100670.81;178764;1262;58552;-85
2024/04/23 08:40:08;;;;;;;6.60;4.60;;;;;;;9.87;52.79;100671.60;178359;1266;46304;-83
2024/04/23 08:44:12;;;;;;;10.10;5.30;;;;;;;9.77;51.28;100664.70;179077;1262;46039;-78
2024/04/23 08:48:15;;;;;;;5.40;4.80;;;;;;;9.91;53.47;100663.54;180766;1262;45807;-78
2024/04/23 08:52:21;;;;;;;4.90;4.30;;;;;;;10.05;54.39;100660.55;180270;1262;44787;-80
2024/04/23 08:56:31;;;;;;;9.30;6.20;;;;;;;10.22;54.14;100652.77;178982;1265;58194;-83
2024/04/23 09:00:44;;;;;;;7.10;5.50;;;;;;;10.37;52.84;100644.17;179150;1262;46111;-82
2024/04/23 09:05:05;;;;;;;4.40;4.00;;;;;;;10.38;51.41;100645.40;178200;1263;46172;-83
2024/04/23 09:09:15;;;;;;;7.60;5.70;;;;;;;10.36;50.02;100641.77;179332;1263;44306;-83
2024/04/23 09:13:18;;;;;;;6.70;4.50;;;;;;;10.23;51.89;100643.83;179179;1266;44176;-85
2024/04/23 09:17:22;;;;;;;5.40;4.60;;;;;;;10.33;50.81;100640.44;179082;1267;57932;-87
2024/04/23 09:21:26;;;;;;;7.70;4.30;;;;;;;10.48;49.90;100636.27;178976;1266;44288;-84
2024/04/23 09:25:34;;;;;;;4.70;3.80;;;;;;;10.63;49.22;100632.88;179664;1264;46082;-85
2024/04/23 09:29:37;;;;;;;5.90;4.10;;;;;;;10.58;48.72;100624.92;179053;1268;46342;-84
2024/04/23 09:33:53;;;;;;;4.60;3.90;;;;;;;10.70;53.51;100616.41;179340;1263;44167;-87
2024/04/23 09:37:56;;;;;;;8.50;4.50;;;;;;;10.63;48.64;100615.15;177864;1263;57079;-85
2024/04/23 09:41:59;;;;;;;4.20;3.80;;;;;;;10.52;48.49;100615.84;178822;1263;46321;-85
2024/04/23 09:46:03;;;;;;;6.30;4.90;;;;;;;10.53;49.33;100607.39;178830;1264;44493;-83
2024/04/23 09:50:09;;;;;;;4.40;4.00;;;;;;;10.62;50.31;100600.86;178510;1263;46020;-87
2024/04/23 09:54:13;;;;;;;5.90;4.50;;;;;;;10.75;50.47;100596.48;178323;1266;46050;-85
2024/04/23 09:58:16;;;;;;;6.10;5.20;;;;;;;10.64;49.22;100596.42;179113;1267;58347;-87
2024/04/23 10:02:29;;;;;;;8.90;5.30;;;;;;;10.16;50.23;100596.67;177890;1263;46061;-83
2024/04/23 10:06:45;;;;;;;7.20;5.20;;;;;;;9.92;50.38;100589.26;179537;1262;45916;-85
2024/04/23 10:10:52;;;;;;;11.20;5.80;;;;;;;9.71;50.77;100589.52;178223;1266;45305;-86
2024/04/23 10:15:37;;;;;;;8.80;6.70;;;;;;;9.61;50.08;100581.04;178814;1263;45514;-85
2024/04/23 10:19:44;;;;;;;7.60;5.20;;;;;;;9.69;49.55;100572.16;177808;1267;60571;-86
2024/04/23 10:23:51;;;;;;;5.50;4.90;;;;;;;9.84;51.07;100562.54;178617;1263;44545;-86
2024/04/23 10:27:56;;;;;;;7.40;5.10;;;;;;;9.90;52.91;100554.65;178456;1262;46116;-86
2024/04/23 10:32:00;;;;;;;13.10;4.50;;;;;;;9.85;52.74;100547.41;177984;1266;46118;-82
2024/04/23 10:36:05;;;;;;;6.90;4.50;;;;;;;9.94;51.04;100543.35;177593;1264;46063;-85
2024/04/23 10:40:11;;;;;;;4.90;4.20;;;;;;;10.10;51.80;100536.52;178667;1263;58211;-81
2024/04/23 10:44:18;;;;;;;;;;;;;;;10.21;52.05;100525.62;178005;1266;43965;-84
2024/04/23 10:48:27;;;;;;;7.10;4.80;;;;;;;10.11;49.68;100521.41;177794;1263;45824;-85
2024/04/23 10:52:31;;;;;;;5.50;4.30;;;;;;;10.10;50.86;100517.34;178504;1266;46014;-85
2024/04/23 10:56:36;;;;;;;5.20;3.60;;;;;;;10.15;49.29;100520.00;178266;1264;45976;-83
2024/04/23 11:00:39;;;;;;;5.20;4.60;;;;;;;10.10;48.41;100514.05;180100;1266;58777;-79
2024/04/23 11:04:45;;;;;;;10.50;4.90;;;;;;;10.02;47.76;100506.48;178896;1264;46011;-84
2024/04/23 11:08:50;;;;;;;5.60;4.70;;;;;;;9.97;49.69;100498.52;178230;1267;46020;-84
2024/04/23 11:13:00;;;;;;;5.40;4.40;;;;;;;10.12;47.57;100492.03;179391;1264;44602;-83
2024/04/23 11:17:04;;;;;;;5.10;4.10;;;;;;;10.25;50.71;100483.98;177716;1270;46207;-84
2024/04/23 11:21:09;;;;;;;7.10;4.00;;;;;;;10.35;50.46;100481.83;177800;1263;58838;-83
2024/04/23 11:25:26;;;;;;;7.20;4.80;;;;;;;10.49;47.45;100474.36;177677;1263;46007;-85
2024/04/23 11:29:29;;;;;;;6.30;5.30;;;;;;;10.58;47.97;100466.02;178469;1266;46090;-83
2024/04/23 11:33:32;;;;;;;7.40;6.50;;;;;;;10.64;48.75;100458.27;178077;1262;46024;-84
2024/04/23 11:37:35;;;;;;;8.30;4.90;;;;;;;10.64;48.12;100450.88;178171;1266;46118;-81
2024/04/23 11:41:40;;;;;;;5.70;4.90;;;;;;;10.80;47.20;100442.01;178328;1262;59237;-82
2024/04/23 11:45:46;;;;;;;7.50;6.70;;;;;;;10.64;47.81;100438.25;179368;1263;46023;-82
2024/04/23 11:49:49;;;;;;;7.60;5.70;;;;;;;10.66;46.98;100431.33;177525;1263;46013;-82
2024/04/23 11:53:54;;;;;;;10.70;6.60;;;;;;;10.75;47.44;100427.11;177314;1262;46111;-85
2024/04/23 11:57:57;;;;;;;7.60;5.60;;;;;;;10.99;48.11;100420.77;178177;1262;44270;-84
2024/04/23 12:02:00;;;;;;;7.80;6.20;;;;;;;11.03;47.04;100417.41;178559;1262;59713;-84
2024/04/23 12:06:04;;;;;;;8.70;7.30;;;;;;;11.12;47.38;100413.45;178077;1262;47099;-84
2024/04/23 12:10:10;;;;;;;7.60;6.70;;;;;;;11.15;47.07;100409.70;178081;1263;46042;-83
2024/04/23 12:14:12;;;;;;;9.50;7.30;;;;;;;11.05;46.75;100405.20;178538;1264;46097;-78
2024/04/23 12:18:15;;;;;;;10.90;7.90;;;;;;;11.17;48.09;100393.04;179132;1263;46003;-84
2024/04/23 12:22:20;;;;;;;10.30;7.00;;;;;;;11.18;48.93;100380.53;177195;1266;57903;-83
2024/04/23 12:26:24;;;;;;;9.40;7.50;;;;;;;11.28;47.85;100373.64;179300;1263;45927;-87
2024/04/23 12:30:27;;;;;;;11.40;8.50;;;;;;;11.30;47.88;100367.46;178718;1263;46168;-84
2024/04/23 12:34:31;;;;;;;11.50;9.30;;;;;;;11.19;49.17;100358.60;177794;1264;46029;-88
2024/04/23 12:38:47;;;;;;;10.80;7.90;;;;;;;11.02;48.79;100349.50;178477;1263;46149;-84
2024/04/23 12:42:51;;;;;;;14.20;8.70;;;;;;;11.02;48.30;100345.27;178307;1263;58979;-83
2024/04/23 12:46:54;;;;;;;10.80;7.60;;;;;;;11.06;47.81;100343.03;178117;1264;47691;-86
2024/04/23 12:50:57;;;;;;;9.50;7.10;;;;;;;11.12;48.12;100338.27;178255;1263;46007;-86
2024/04/23 12:54:59;;;;;;;11.70;7.50;;;;;;;11.27;47.93;100335.04;177467;1263;46235;-88
2024/04/23 12:59:05;;;;;;;12.50;7.80;;;;;;;11.45;47.51;100327.48;177614;1264;46123;-84
2024/04/23 13:03:09;;;;;;;9.10;7.20;;;;;;;11.61;47.56;100317.46;178942;1267;59617;-86
2024/04/23 13:07:12;;;;;;;8.60;7.80;;;;;;;11.68;47.04;100307.04;178892;1263;45924;-86
2024/04/23 13:11:16;;;;;;;12.30;8.40;;;;;;;11.76;47.36;100298.41;180448;1264;44072;-88
2024/04/23 13:15:19;;;;;;;10.90;7.20;;;;;;;11.85;46.67;100284.70;179979;1263;46261;-85
2024/04/23 13:19:25;;;;;;;8.50;7.70;;;;;;;11.88;46.99;100282.42;179410;1266;44416;-86
2024/04/23 13:23:28;;;;;;;14.10;9.10;;;;;;;11.77;47.99;100281.59;179353;1262;58249;-85
2024/04/23 13:27:31;;;;;;;9.00;8.00;;;;;;;11.66;47.31;100280.64;179662;1262;44047;-82
2024/04/23 13:31:34;;;;;;;36.70;28.20;;;;;;;11.58;46.92;100274.34;179592;1262;44312;-83
2024/04/23 13:35:38;;;;;;;14.00;9.40;;;;;;;11.57;46.74;100267.16;178684;1262;44216;-87
2024/04/23 13:39:41;;;;;;;12.10;8.60;;;;;;;11.67;46.64;100262.61;179155;1264;44206;-88
2024/04/23 13:43:48;;;;;;;11.80;8.50;;;;;;;11.82;46.55;100248.65;179094;1262;58010;-87
2024/04/23 13:47:54;;;;;;;9.40;7.50;;;;;;;11.95;46.43;100240.77;179601;1263;45875;-88
2024/04/23 13:56:38;;;;;;;9.70;7.60;;;;;;;12.05;48.48;100226.95;180106;1265;44857;-83
2024/04/23 14:00:41;;;;;;;12.90;8.60;;;;;;;12.09;46.23;100224.48;179514;1265;46050;-88
2024/04/23 14:04:46;;;;;;;13.90;10.30;;;;;;;12.07;44.45;100223.73;179781;1269;59852;-90
2024/04/23 14:08:53;;;;;;;9.20;7.50;;;;;;;12.08;44.66;100225.80;179470;1267;44703;-87
2024/04/23 14:17:29;;;;;;;10.80;7.50;;;;;;;12.42;45.36;100214.05;178687;1263;45139;-83
2024/04/23 14:21:32;;;;;;;12.40;6.80;;;;;;;12.49;45.63;100202.31;179969;1260;45929;-83
2024/04/23 14:25:35;;;;;;;9.10;6.70;;;;;;;12.61;47.66;100193.30;180343;1264;59141;-80
2024/04/23 14:29:39;;;;;;;9.00;8.10;;;;;;;12.78;44.78;100188.61;179776;1263;44135;-87
2024/04/23 14:33:44;;;;;;;14.50;7.90;;;;;;;12.77;44.87;100181.91;179459;1262;46047;-89
2024/04/23 14:37:50;;;;;;;13.70;8.60;;;;;;;12.55;45.33;100178.05;177965;1264;46118;-89
2024/04/23 14:41:53;;;;;;;7.90;7.10;;;;;;;12.47;44.03;100181.81;178320;1263;45949;-88
2024/04/23 14:45:56;;;;;;;10.60;6.60;;;;;;;12.45;44.25;100178.21;178427;1264;59520;-84
2024/04/23 14:50:06;;;;;;;9.60;7.90;;;;;;;12.53;44.67;100170.04;178798;1264;44232;-86
2024/04/23 14:54:10;;;;;;;9.20;7.90;;;;;;;12.57;45.72;100167.02;178615;1264;45998;-88
2024/04/23 14:58:13;;;;;;;10.60;7.10;;;;;;;12.61;44.32;100159.73;178668;1264;46069;-87
2024/04/23 15:02:18;;;;;;;9.30;7.00;;;;;;;12.66;44.00;100160.80;178057;1264;45985;-82
2024/04/23 15:06:21;;;;;;;8.70;6.80;;;;;;;12.70;43.93;100151.95;179128;1263;60235;-87
2024/04/23 15:10:26;;;;;;;7.10;6.40;;;;;;;12.81;44.16;100145.90;178849;1263;44036;-87
2024/04/23 15:14:29;;;;;;;6.90;5.90;;;;;;;12.85;43.66;100145.15;178888;1263;46177;-88
2024/04/23 15:18:40;;;;;;;11.30;6.90;;;;;;;12.81;43.66;100142.42;178762;1264;45978;-85
2024/04/23 15:22:43;;;;;;;10.80;6.20;;;;;;;12.80;43.50;100141.08;178125;1264;46125;-86
2024/04/23 15:26:46;;;;;;;10.00;7.20;;;;;;;12.76;43.34;100139.45;179959;1263;58171;-85
2024/04/23 15:30:49;;;;;;;8.80;6.50;;;;;;;12.82;43.61;100135.30;178304;1263;46114;-83
2024/04/23 15:34:52;;;;;;;7.10;5.80;;;;;;;12.86;44.68;100137.30;178490;1264;46111;-88
2024/04/23 15:38:55;;;;;;;9.00;5.80;;;;;;;13.04;43.74;100130.67;180474;1263;44168;-87
2024/04/23 15:42:59;;;;;;;8.90;6.10;;;;;;;13.14;43.33;100126.89;178559;1263;44156;-84
2024/04/23 15:47:02;;;;;;;8.80;7.00;;;;;;;13.15;43.49;100127.86;179598;1263;58483;-84
2024/04/23 15:51:05;;;;;;;8.80;6.80;;;;;;;13.11;43.29;100116.67;178070;1263;46101;-85
2024/04/23 15:55:11;;;;;;;8.70;6.80;;;;;;;13.13;43.39;100109.47;178554;1267;46598;-85
2024/04/23 15:59:14;;;;;;;13.20;9.70;;;;;;;13.00;45.21;100103.42;178396;1264;44192;-84
2024/04/23 16:03:18;;;;;;;9.40;7.40;;;;;;;12.99;44.49;100107.76;177886;1263;46056;-87
2024/04/23 16:07:21;;;;;;;14.60;9.40;;;;;;;12.93;45.29;100107.45;178524;1264;59333;-88
2024/04/23 16:11:24;;;;;;;10.60;7.70;;;;;;;12.86;46.17;100099.15;178908;1264;46138;-85
2024/04/23 16:15:27;;;;;;;15.20;8.80;;;;;;;12.76;46.14;100096.21;178083;1263;45119;-81
2024/04/23 16:19:30;;;;;;;13.90;8.20;;;;;;;12.67;45.69;100095.45;178260;1263;46132;-84
2024/04/23 16:23:37;;;;;;;9.10;7.00;;;;;;;12.55;44.83;100089.47;179188;1263;46062;-86
2024/04/23 16:27:40;;;;;;;11.10;6.50;;;;;;;12.37;45.29;100088.23;177964;1264;60184;-86
2024/04/23 16:31:43;;;;;;;11.00;6.70;;;;;;;12.14;45.17;100091.28;179501;1263;46029;-87
2024/04/23 16:35:48;;;;;;;7.40;5.90;;;;;;;11.97;46.05;100087.29;178123;1264;46066;-85
2024/04/23 16:39:50;;;;;;;7.20;5.60;;;;;;;11.86;46.46;100082.21;178962;1263;44064;-86
2024/04/23 16:43:53;;;;;;;9.90;6.30;;;;;;;11.62;46.48;100077.42;178934;1264;44093;-87
2024/04/23 16:47:57;;;;;;;9.40;5.60;;;;;;;11.48;47.05;100072.77;178500;1264;59682;-86
2024/04/23 16:52:01;;;;;;;7.70;5.60;;;;;;;11.47;46.95;100068.80;178259;1263;46024;-85
2024/04/23 16:56:10;;;;;;;9.70;5.20;;;;;;;11.46;47.46;100064.40;177595;1264;46121;-85
2024/04/23 17:00:14;;;;;;;7.30;6.20;;;;;;;11.38;47.67;100066.21;177174;1267;46135;-83
2024/04/23 17:04:17;;;;;;;10.90;6.50;;;;;;;11.26;47.62;100064.77;178394;1264;46005;-85
2024/04/23 17:08:20;;;;;;;12.20;7.50;;;;;;;11.13;48.38;100058.64;178088;1265;58055;-86
2024/04/23 17:12:23;;;;;;;5.50;5.00;;;;;;;10.98;48.60;100058.48;177101;1264;46233;-87
2024/04/23 17:16:27;;;;;;;8.90;6.60;;;;;;;10.83;49.12;100059.57;178564;1263;46346;-86
2024/04/23 17:20:30;;;;;;;7.20;5.80;;;;;;;10.68;50.01;100063.75;178592;1263;46024;-85
2024/04/23 17:24:33;;;;;;;8.50;6.00;;;;;;;10.47;50.03;100061.60;177625;1267;45995;-86
2024/04/23 17:28:36;;;;;;;7.50;4.90;;;;;;;10.31;50.71;100062.95;177737;1263;58627;-85
2024/04/23 17:32:39;;;;;;;10.30;5.80;;;;;;;10.14;51.07;100061.10;177743;1263;44169;-85
2024/04/23 17:36:42;;;;;;;5.50;4.40;;;;;;;10.01;51.78;100054.37;177374;1264;44738;-85
2024/04/23 17:40:45;;;;;;;6.60;5.80;;;;;;;9.88;52.21;100053.19;178310;1264;46039;-80
2024/04/23 17:44:48;;;;;;;9.10;5.30;;;;;;;9.74;52.31;100048.83;177992;1263;46449;-85
2024/04/23 17:48:51;;;;;;;6.70;5.70;;;;;;;9.60;52.93;100043.77;177965;1264;59849;-85
2024/04/23 17:52:54;;;;;;;6.00;5.40;;;;;;;9.49;53.96;100045.89;178809;1263;46034;-82
2024/04/23 17:56:57;;;;;;;6.70;5.20;;;;;;;9.39;54.88;100040.14;178411;1263;44511;-84
2024/04/23 18:01:07;;;;;;;7.40;6.20;;;;;;;9.32;54.95;100040.69;179256;1263;46153;-85
2024/04/23 18:05:10;;;;;;;8.20;6.40;;;;;;;9.26;55.67;100034.21;178409;1263;44049;-85
2024/04/23 18:09:13;;;;;;;9.60;6.40;;;;;;;9.21;55.88;100028.67;178181;1264;60752;-83
2024/04/23 18:13:16;;;;;;;20.80;7.30;;;;;;;9.15;55.65;100028.93;178175;1264;46169;-83
2024/04/23 18:17:19;;;;;;;11.20;7.90;;;;;;;9.11;56.19;100031.23;178532;1263;46053;-85
2024/04/23 18:21:22;;;;;;;15.40;10.60;;;;;;;9.04;56.26;100026.84;178961;1263;45999;-84
2024/04/23 18:25:25;;;;;;;14.60;9.60;;;;;;;8.93;56.71;100027.46;178818;1263;46078;-87
2024/04/23 18:29:28;;;;;;;12.00;8.70;;;;;;;8.82;57.39;100028.14;177948;1263;59658;-80
2024/04/23 18:33:31;;;;;;;9.00;7.10;;;;;;;8.74;58.57;100031.64;178017;1263;46174;-88
2024/04/23 18:37:35;;;;;;;11.80;6.70;;;;;;;8.63;60.02;100025.93;177903;1264;46055;-87
2024/04/23 18:41:38;;;;;;;10.90;5.90;;;;;;;8.53;60.35;100026.20;177542;1264;44290;-83
2024/04/23 18:45:41;;;;;;;10.30;6.70;;;;;;;8.41;61.24;100024.77;178012;1264;46133;-84
2024/04/23 18:49:44;;;;;;;8.50;6.20;;;;;;;8.30;62.07;100023.30;178240;1263;59450;-82